Time;durP1;ratioP1;P1;durP2;ratioP2;P2;SDS_P1;SDS_P2;PMS_P1;PMS_P2;Temp;Humidity;BMP_temperature;BMP_pressure;BME280_temperature;BME280_humidity;BME280_pressure;Samples;Min_cycle;Max_cycle;Signal;HPM_P1;HPM_P2
2022/03/22 00:00:17;;;;;;;0.60;0.60;;;;;;;5.28;45.16;98212.56;29373;209;63005;-63
2022/03/22 00:00:49;;;;;;;0.50;0.50;;;;;;;5.27;45.31;98211.72;29373;202;63021;-61
2022/03/22 00:01:21;;;;;;;0.50;0.50;;;;;;;5.27;45.26;98214.41;29373;274;63004;-63
2022/03/22 00:01:53;;;;;;;0.60;0.60;;;;;;;5.27;45.19;98211.72;29371;211;64009;-64
2022/03/22 00:02:27;;;;;;;0.60;0.60;;;;;;;5.27;44.98;98208.22;29371;231;64004;-63
2022/03/22 00:02:58;;;;;;;0.60;0.60;;;;;;;5.27;44.90;98205.53;29395;274;63009;-63
2022/03/22 00:03:30;;;;;;;0.50;0.50;;;;;;;5.26;45.18;98207.41;29373;382;63004;-63
2022/03/22 00:04:02;;;;;;;0.60;0.60;;;;;;;5.26;45.28;98210.09;29371;248;64008;-65
2022/03/22 00:04:34;;;;;;;0.60;0.60;;;;;;;5.25;45.09;98211.13;29373;296;63005;-64
2022/03/22 00:05:06;;;;;;;0.50;0.50;;;;;;;5.24;45.31;98209.50;29371;208;64009;-61
2022/03/22 00:05:42;;;;;;;0.60;0.60;;;;;;;5.25;45.27;98210.31;29373;202;63005;-65
2022/03/22 00:06:14;;;;;;;0.60;0.60;;;;;;;5.22;45.54;98200.00;29371;237;64009;-63
2022/03/22 00:06:47;;;;;;;0.60;0.60;;;;;;;5.21;45.70;98212.63;29373;197;63005;-62
2022/03/22 00:07:18;;;;;;;0.60;0.60;;;;;;;5.18;45.46;98210.41;29373;286;63009;-63
2022/03/22 00:07:50;;;;;;;0.60;0.60;;;;;;;5.18;45.58;98210.41;29373;287;63005;-62
2022/03/22 00:08:22;;;;;;;0.50;0.50;;;;;;;5.17;45.79;98208.78;29373;346;63009;-61
2022/03/22 00:08:54;;;;;;;0.52;0.52;;;;;;;5.17;45.94;98206.09;29373;312;63004;-63
2022/03/22 00:09:28;;;;;;;0.60;0.60;;;;;;;5.17;45.76;98208.78;29394;199;64009;-63
2022/03/22 00:09:59;;;;;;;0.60;0.60;;;;;;;5.17;45.46;98203.41;29373;215;63004;-62
2022/03/22 00:10:48;;;;;;;0.60;0.60;;;;;;;5.18;45.52;98205.03;29395;297;63010;-61
2022/03/22 00:11:28;;;;;;;0.50;0.50;;;;;;;5.19;45.40;98200.47;29373;275;63008;-61
2022/03/22 00:12:00;;;;;;;0.60;0.60;;;;;;;5.18;45.17;98199.66;29373;366;63014;-64
2022/03/22 00:12:31;;;;;;;0.60;0.60;;;;;;;5.19;45.33;98201.31;29373;301;63009;-62
2022/03/22 00:13:06;;;;;;;0.60;0.60;;;;;;;5.19;45.56;98209.37;29371;221;64005;-62
2022/03/22 00:13:38;;;;;;;0.60;0.60;;;;;;;5.20;45.50;98202.91;29373;336;63009;-63
2022/03/22 00:14:09;;;;;;;0.60;0.60;;;;;;;5.20;45.39;98197.53;29373;264;63005;-64
2022/03/22 00:14:40;;;;;;;0.50;0.50;;;;;;;5.19;45.16;98201.31;29373;203;63020;-61
2022/03/22 00:15:13;;;;;;;0.60;0.60;;;;;;;5.20;45.12;98208.28;29373;234;63005;-65
2022/03/22 00:15:45;;;;;;;0.60;0.60;;;;;;;5.20;45.13;98202.13;29373;286;63009;-63
2022/03/22 00:16:17;;;;;;;0.52;0.52;;;;;;;5.19;45.07;98201.31;29373;209;63004;-62
2022/03/22 00:16:50;;;;;;;0.55;0.55;;;;;;;5.21;45.07;98198.34;29372;197;63009;-63
2022/03/22 00:17:21;;;;;;;0.50;0.50;;;;;;;5.20;45.10;98197.53;29373;253;63004;-64
2022/03/22 00:17:53;;;;;;;0.60;0.60;;;;;;;5.21;45.16;98199.19;29373;214;63009;-63
2022/03/22 00:18:24;;;;;;;0.60;0.60;;;;;;;5.20;45.23;98197.53;29394;237;64004;-60
2022/03/22 00:18:55;;;;;;;0.60;0.60;;;;;;;5.20;45.24;98202.91;29395;266;63008;-65
2022/03/22 00:19:27;;;;;;;0.50;0.50;;;;;;;5.21;45.36;98201.87;29395;224;63005;-63
2022/03/22 00:19:58;;;;;;;0.60;0.60;;;;;;;5.21;45.32;98198.34;29395;216;63009;-64
2022/03/22 00:20:31;;;;;;;0.60;0.60;;;;;;;5.19;45.22;98201.31;29373;197;63005;-63
2022/03/22 00:21:02;;;;;;;0.60;0.60;;;;;;;5.19;45.26;98201.31;29373;213;63025;-63
2022/03/22 00:21:39;;;;;;;0.60;0.60;;;;;;;5.20;45.26;98202.91;29373;254;63005;-63
2022/03/22 00:22:11;;;;;;;0.60;0.60;;;;;;;5.19;45.35;98198.59;29373;354;63009;-64
2022/03/22 00:22:43;;;;;;;0.50;0.50;;;;;;;5.18;45.44;98194.28;29373;196;63004;-64
2022/03/22 00:23:14;;;;;;;0.60;0.60;;;;;;;5.16;45.83;98200.94;29373;242;63009;-61
2022/03/22 00:23:47;;;;;;;0.60;0.60;;;;;;;5.15;46.17;98201.97;29371;218;64004;-63
2022/03/22 00:24:18;;;;;;;0.60;0.60;;;;;;;5.13;46.38;98207.59;29373;227;63009;-61
2022/03/22 00:24:49;;;;;;;0.50;0.50;;;;;;;5.10;46.54;98213.41;29371;236;64004;-63
2022/03/22 00:25:24;;;;;;;0.60;0.60;;;;;;;5.09;46.66;98205.56;29371;212;64008;-64
2022/03/22 00:25:56;;;;;;;0.60;0.60;;;;;;;5.07;46.79;98208.47;29373;294;63004;-62
2022/03/22 00:26:27;;;;;;;0.60;0.60;;;;;;;5.07;46.97;98210.34;29373;333;63014;-63
2022/03/22 00:26:59;;;;;;;0.60;0.60;;;;;;;5.06;46.92;98206.84;29373;203;63005;-64
2022/03/22 00:27:50;;;;;;;0.60;0.60;;;;;;;5.05;46.95;98199.81;29373;299;63009;-60
2022/03/22 00:28:21;;;;;;;0.60;0.60;;;;;;;5.07;46.51;98203.09;29417;277;63005;-61
2022/03/22 00:28:55;;;;;;;0.50;0.50;;;;;;;5.06;46.64;98206.84;29395;258;63009;-60
2022/03/22 00:29:26;;;;;;;0.60;0.60;;;;;;;5.06;46.52;98206.84;29371;197;64005;-63
2022/03/22 00:29:58;;;;;;;0.50;0.50;;;;;;;5.06;46.41;98201.44;29373;198;63009;-60
2022/03/22 00:30:32;;;;;;;0.50;0.50;;;;;;;5.05;46.16;98200.63;29373;334;63004;-61
2022/03/22 00:31:07;;;;;;;0.60;0.60;;;;;;;5.04;46.73;98199.00;29373;239;63016;-64
2022/03/22 00:31:39;;;;;;;0.60;0.60;;;;;;;5.03;46.72;98201.91;29373;198;63004;-62
2022/03/22 00:32:11;;;;;;;0.60;0.60;;;;;;;5.03;46.84;98207.28;29373;277;63009;-63
2022/03/22 00:32:43;;;;;;;0.50;0.50;;;;;;;5.02;46.74;98211.00;29373;243;63004;-65
2022/03/22 00:33:14;;;;;;;0.50;0.50;;;;;;;5.00;46.85;98202.34;29373;309;63008;-63
2022/03/22 00:33:45;;;;;;;0.60;0.60;;;;;;;5.00;46.83;98207.72;29373;236;63005;-64
2022/03/22 00:34:16;;;;;;;0.50;0.50;;;;;;;4.99;46.74;98200.69;29394;263;64009;-64
2022/03/22 00:34:47;;;;;;;0.50;0.50;;;;;;;4.99;46.58;98203.41;29373;233;63005;-63
2022/03/22 00:35:19;;;;;;;0.60;0.60;;;;;;;4.99;46.38;98206.91;29373;315;63009;-63
2022/03/22 00:35:50;;;;;;;0.60;0.60;;;;;;;4.99;46.43;98201.53;29373;202;63005;-64
2022/03/22 00:36:25;;;;;;;0.50;0.50;;;;;;;5.00;46.86;98207.72;29373;225;63009;-63
2022/03/22 00:36:58;;;;;;;0.60;0.60;;;;;;;4.99;47.00;98203.41;29395;248;63005;-61
2022/03/22 00:37:29;;;;;;;0.60;0.60;;;;;;;5.00;47.40;98199.66;29395;259;63009;-63
2022/03/22 00:38:01;;;;;;;0.60;0.60;;;;;;;5.00;47.37;98207.72;29373;209;63004;-60
2022/03/22 00:38:32;;;;;;;0.60;0.60;;;;;;;5.00;47.69;98207.72;29394;227;64009;-63
2022/03/22 00:39:03;;;;;;;0.60;0.60;;;;;;;5.00;47.74;98207.72;29395;278;63004;-63
2022/03/22 00:39:34;;;;;;;0.70;0.70;;;;;;;4.99;47.43;98200.69;29371;233;64009;-60
2022/03/22 00:40:11;;;;;;;0.60;0.60;;;;;;;5.00;47.57;98213.09;29373;326;63004;-63
2022/03/22 00:40:44;;;;;;;0.60;0.60;;;;;;;5.00;48.04;98202.34;29373;224;63008;-61
2022/03/22 00:41:17;;;;;;;0.50;0.50;;;;;;;5.00;48.09;98210.41;29373;209;63005;-62
2022/03/22 00:41:49;;;;;;;0.60;0.60;;;;;;;5.00;48.19;98207.72;29373;197;63009;-64
2022/03/22 00:42:21;;;;;;;0.50;0.50;;;;;;;5.00;48.27;98207.72;29371;253;64005;-60
2022/03/22 00:42:54;;;;;;;0.50;0.50;;;;;;;5.01;47.93;98209.37;29373;285;63009;-63
2022/03/22 00:43:28;;;;;;;0.60;0.60;;;;;;;5.02;47.71;98205.62;29373;277;63005;-63
2022/03/22 00:43:59;;;;;;;0.60;0.60;;;;;;;5.03;47.52;98200.03;29373;267;63009;-63
2022/03/22 00:44:31;;;;;;;0.60;0.60;;;;;;;5.04;47.13;98195.47;29373;344;63005;-63
2022/03/22 00:45:03;;;;;;;0.60;0.60;;;;;;;5.05;47.13;98194.44;29373;313;63009;-64
2022/03/22 00:45:37;;;;;;;0.60;0.60;;;;;;;5.05;47.01;98197.94;29371;243;64004;-63
2022/03/22 00:46:08;;;;;;;0.50;0.50;;;;;;;5.07;46.78;98197.72;29373;343;63009;-62
2022/03/22 00:46:39;;;;;;;0.50;0.50;;;;;;;5.09;46.60;98203.69;29373;345;63004;-64
2022/03/22 00:47:11;;;;;;;0.50;0.50;;;;;;;5.10;46.68;98204.53;29373;242;63009;-63
2022/03/22 00:47:44;;;;;;;0.60;0.60;;;;;;;5.09;46.67;98202.87;29373;333;63004;-64
2022/03/22 00:48:15;;;;;;;0.50;0.50;;;;;;;5.08;46.97;98193.16;29371;261;64008;-60
2022/03/22 00:48:47;;;;;;;0.50;0.50;;;;;;;5.08;46.96;98193.97;29371;321;64005;-62
2022/03/22 00:49:18;;;;;;;0.57;0.57;;;;;;;5.07;46.78;98197.72;29373;306;63009;-63
2022/03/22 00:49:49;;;;;;;0.60;0.60;;;;;;;5.07;46.70;98196.91;29371;267;64005;-63
2022/03/22 00:50:24;;;;;;;0.60;0.60;;;;;;;5.07;46.89;98197.72;29373;248;63009;-64
2022/03/22 00:50:56;;;;;;;0.50;0.50;;;;;;;5.07;46.60;98192.34;29373;234;63005;-60
2022/03/22 00:51:28;;;;;;;0.60;0.60;;;;;;;5.07;46.97;98197.72;29373;218;63009;-64
2022/03/22 00:52:01;;;;;;;0.60;0.60;;;;;;;5.08;46.83;98198.53;29373;343;63005;-61
2022/03/22 00:52:35;;;;;;;0.50;0.50;;;;;;;5.07;47.02;98197.72;29373;238;63009;-63
2022/03/22 00:53:08;;;;;;;0.60;0.60;;;;;;;5.07;47.29;98192.34;29373;198;63004;-61
2022/03/22 00:53:41;;;;;;;0.50;0.50;;;;;;;5.05;47.58;98199.81;29371;281;64009;-64
2022/03/22 00:54:12;;;;;;;0.60;0.60;;;;;;;5.04;47.43;98195.47;29373;197;63004;-61
2022/03/22 00:54:44;;;;;;;0.60;0.60;;;;;;;5.03;47.65;98196.53;29373;312;63009;-64
2022/03/22 00:55:23;;;;;;;0.60;0.60;;;;;;;5.03;47.61;98201.91;29373;379;63004;-64
2022/03/22 00:55:56;;;;;;;0.60;0.60;;;;;;;5.01;47.93;98195.91;29373;341;63025;-60
2022/03/22 00:56:27;;;;;;;0.60;0.60;;;;;;;5.00;47.91;98192.41;29373;247;63005;-61
2022/03/22 00:56:59;;;;;;;0.60;0.60;;;;;;;4.98;48.04;98194.50;29373;337;63009;-64
2022/03/22 00:57:30;;;;;;;0.57;0.57;;;;;;;4.99;47.99;98196.16;29371;351;64005;-65
2022/03/22 00:58:03;;;;;;;0.50;0.50;;;;;;;4.99;47.87;98200.69;29373;295;63009;-64
2022/03/22 00:58:35;;;;;;;0.50;0.50;;;;;;;4.98;48.10;98194.50;29373;284;63005;-61
2022/03/22 01:00:07;;;;;;;0.60;0.60;;;;;;;4.98;47.56;98199.06;29373;207;63005;-62
2022/03/22 01:00:39;;;;;;;0.52;0.52;;;;;;;4.99;47.47;98195.31;29373;328;63009;-61
2022/03/22 01:01:10;;;;;;;0.60;0.60;;;;;;;4.99;47.58;98196.16;29373;220;63004;-60
2022/03/22 01:01:42;;;;;;;0.60;0.60;;;;;;;5.00;47.12;98191.59;29373;241;63009;-61
2022/03/22 01:02:14;;;;;;;0.60;0.60;;;;;;;5.01;46.94;98193.22;29373;304;63004;-61
2022/03/22 01:02:50;;;;;;;0.50;0.50;;;;;;;5.00;46.82;98197.78;29394;211;64009;-61
2022/03/22 01:03:22;;;;;;;0.52;0.52;;;;;;;4.99;47.19;98190.75;29373;242;63004;-63
2022/03/22 01:03:53;;;;;;;1.25;1.25;;;;;;;4.98;47.71;98197.19;29394;222;64009;-62
2022/03/22 01:04:24;;;;;;;0.60;0.60;;;;;;;4.96;48.01;98201.97;29373;270;63005;-64
2022/03/22 01:04:58;;;;;;;0.50;0.50;;;;;;;4.95;48.16;98188.75;29373;280;63009;-64
2022/03/22 01:05:31;;;;;;;0.60;0.60;;;;;;;4.93;47.90;98196.22;29373;260;63005;-63
2022/03/22 01:06:02;;;;;;;0.60;0.60;;;;;;;4.91;47.99;98192.94;29373;289;63009;-61
2022/03/22 01:06:34;;;;;;;0.50;0.50;;;;;;;4.89;48.23;98201.22;29373;305;63018;-64
2022/03/22 01:07:05;;;;;;;0.50;0.50;;;;;;;4.87;48.17;98191.72;29373;359;63009;-61
2022/03/22 01:07:37;;;;;;;0.60;0.60;;;;;;;4.86;48.36;98195.47;29373;200;63005;-63
2022/03/22 01:08:12;;;;;;;0.52;0.52;;;;;;;4.85;48.08;98199.22;29371;226;64009;-63
2022/03/22 01:08:46;;;;;;;0.60;0.60;;;;;;;4.85;48.17;98199.22;29373;209;63004;-64
2022/03/22 01:09:17;;;;;;;0.60;0.60;;;;;;;4.84;48.56;98197.59;29373;323;63009;-61
2022/03/22 01:09:48;;;;;;;0.60;0.60;;;;;;;4.84;48.52;98201.09;29373;331;63004;-61
2022/03/22 01:10:22;;;;;;;0.60;0.60;;;;;;;4.85;48.47;98193.84;29373;340;63009;-60
2022/03/22 01:10:53;;;;;;;0.60;0.60;;;;;;;4.84;48.41;98192.22;29373;196;63004;-65
2022/03/22 01:11:25;;;;;;;0.52;0.52;;;;;;;4.85;48.18;98191.97;29373;212;63009;-62
2022/03/22 01:11:57;;;;;;;0.60;0.60;;;;;;;4.86;47.97;98190.91;29371;220;64005;-63
2022/03/22 01:12:30;;;;;;;0.60;0.60;;;;;;;4.87;47.89;98189.03;29373;258;63009;-65
2022/03/22 01:13:02;;;;;;;0.60;0.60;;;;;;;4.87;47.23;98189.03;29373;340;63005;-61
2022/03/22 01:13:33;;;;;;;0.60;0.60;;;;;;;4.87;47.29;98194.41;29371;293;64009;-64
2022/03/22 01:14:08;;;;;;;0.60;0.60;;;;;;;4.87;47.48;98180.97;29371;300;64005;-62
2022/03/22 01:14:40;;;;;;;0.60;0.60;;;;;;;4.88;48.16;98198.75;29373;245;63009;-60
2022/03/22 01:15:18;;;;;;;0.50;0.50;;;;;;;4.84;47.58;98192.22;29373;228;63004;-61
2022/03/22 01:15:50;;;;;;;0.60;0.60;;;;;;;4.82;47.90;98191.62;29373;234;63009;-63
2022/03/22 01:16:21;;;;;;;0.60;0.60;;;;;;;4.78;47.97;98195.78;29373;283;63004;-64
2022/03/22 01:16:53;;;;;;;0.50;0.50;;;;;;;4.77;47.96;98191.47;29373;307;63009;-63
2022/03/22 01:17:27;;;;;;;0.60;0.60;;;;;;;4.75;47.58;98186.31;29373;306;63004;-63
2022/03/22 01:18:06;;;;;;;0.60;0.60;;;;;;;4.75;47.53;98182.78;29373;303;63021;-63
2022/03/22 01:18:38;;;;;;;0.60;0.60;;;;;;;4.72;48.91;98184.88;29371;305;64004;-63
2022/03/22 01:19:10;;;;;;;0.60;0.60;;;;;;;4.69;48.14;98190.69;29373;204;63009;-63
2022/03/22 01:19:41;;;;;;;0.60;0.60;;;;;;;4.68;48.15;98183.69;29373;288;63005;-63
2022/03/22 01:20:14;;;;;;;0.50;0.50;;;;;;;4.67;48.21;98186.59;29373;210;63009;-61
2022/03/22 01:20:48;;;;;;;0.80;0.80;;;;;;;4.66;48.49;98185.78;29373;236;63005;-64
2022/03/22 01:21:19;;;;;;;0.60;0.60;;;;;;;4.65;48.26;98180.63;29373;197;63009;-63
2022/03/22 01:21:51;;;;;;;0.60;0.60;;;;;;;4.63;48.26;98186.22;29373;243;63005;-63
2022/03/22 01:22:23;;;;;;;0.60;0.60;;;;;;;4.62;48.82;98189.94;29373;296;63009;-60
2022/03/22 01:22:55;;;;;;;0.57;0.57;;;;;;;4.61;48.53;98193.69;29373;196;63004;-63
2022/03/22 01:23:27;;;;;;;0.68;0.68;;;;;;;4.64;47.51;98187.84;29371;290;64009;-60
2022/03/22 01:24:02;;;;;;;0.60;0.60;;;;;;;4.66;47.00;98179.56;29373;314;63004;-63
2022/03/22 01:24:33;;;;;;;0.50;0.50;;;;;;;4.68;46.97;98178.31;29373;212;63009;-61
2022/03/22 01:25:13;;;;;;;0.60;0.60;;;;;;;4.68;46.68;98178.31;29373;360;63004;-63
2022/03/22 01:25:45;;;;;;;;;;;;;;;4.71;46.59;98177.03;29974;983;28000;-63
2022/03/22 01:26:16;;;;;;;0.60;0.60;;;;;;;4.73;46.72;98183.00;29422;278;63009;-63
2022/03/22 01:26:48;;;;;;;0.60;0.60;;;;;;;4.76;46.44;98179.87;29395;216;63005;-60
2022/03/22 01:27:22;;;;;;;0.50;0.50;;;;;;;4.79;46.02;98179.44;29373;210;63016;-61
2022/03/22 01:27:58;;;;;;;0.60;0.60;;;;;;;4.82;45.94;98179.00;29373;302;63005;-60
2022/03/22 01:28:29;;;;;;;0.60;0.60;;;;;;;4.85;45.72;98172.34;29371;207;64009;-62
2022/03/22 01:29:00;;;;;;;0.50;0.50;;;;;;;4.86;45.59;98173.94;29373;202;63005;-63
2022/03/22 01:29:31;;;;;;;0.60;0.60;;;;;;;4.87;45.79;98164.84;29373;203;63016;-63
2022/03/22 01:30:07;;;;;;;9.43;4.65;;;;;;;4.89;45.69;98168.12;29371;199;64004;-62
2022/03/22 01:30:40;;;;;;;0.60;0.60;;;;;;;4.87;45.74;98171.03;29373;204;63009;-64
2022/03/22 01:31:11;;;;;;;0.60;0.60;;;;;;;4.83;46.00;98171.75;29371;221;64004;-64
2022/03/22 01:31:44;;;;;;;0.73;0.73;;;;;;;4.81;45.97;98171.16;29373;229;63009;-60
2022/03/22 01:32:16;;;;;;;0.60;0.60;;;;;;;4.81;46.09;98176.53;29373;208;63004;-63
2022/03/22 01:32:50;;;;;;;0.60;0.60;;;;;;;4.81;46.12;98171.16;29373;228;63008;-63
2022/03/22 01:33:21;;;;;;;0.60;0.60;;;;;;;4.80;46.17;98177.56;29371;226;64005;-60
2022/03/22 01:33:53;;;;;;;0.60;0.60;;;;;;;4.79;46.27;98173.22;29373;306;63009;-60
2022/03/22 01:34:24;;;;;;;0.60;0.60;;;;;;;4.79;46.39;98181.31;29373;347;63005;-61
2022/03/22 01:34:56;;;;;;;0.60;0.60;;;;;;;4.78;46.40;98166.22;29373;336;63009;-63
2022/03/22 01:35:27;;;;;;;0.50;0.50;;;;;;;4.78;46.48;98177.78;29373;350;63005;-62
2022/03/22 01:35:58;;;;;;;0.60;0.60;;;;;;;4.78;46.55;98172.41;29373;268;63009;-63
2022/03/22 01:36:31;;;;;;;0.50;0.50;;;;;;;4.79;46.41;98174.06;29371;223;64005;-62
2022/03/22 01:37:04;;;;;;;0.60;0.60;;;;;;;4.80;46.38;98174.88;29373;361;63009;-64
2022/03/22 01:37:39;;;;;;;0.60;0.60;;;;;;;4.80;46.45;98164.13;29373;327;63013;-60
2022/03/22 01:38:11;;;;;;;0.60;0.60;;;;;;;4.81;46.60;98165.75;29373;208;63009;-63
2022/03/22 01:38:43;;;;;;;0.60;0.60;;;;;;;4.82;46.42;98172.78;29373;206;63004;-63
2022/03/22 01:39:14;;;;;;;0.60;0.60;;;;;;;4.84;46.43;98170.69;29371;196;64009;-60
2022/03/22 01:39:45;;;;;;;0.70;0.70;;;;;;;4.85;46.17;98165.06;29373;307;63004;-63
2022/03/22 01:40:18;;;;;;;0.60;0.60;;;;;;;4.89;45.88;98174.31;29373;226;63008;-63
2022/03/22 01:40:50;;;;;;;0.60;0.60;;;;;;;4.91;45.76;98171.41;29373;196;63005;-63
2022/03/22 01:41:23;;;;;;;0.60;0.60;;;;;;;4.90;45.69;98162.53;29373;362;63009;-62
2022/03/22 01:41:57;;;;;;;0.60;0.60;;;;;;;4.89;45.74;98162.75;29373;265;63005;-63
2022/03/22 01:42:29;;;;;;;0.60;0.60;;;;;;;4.87;45.85;98164.84;29373;365;63009;-61
2022/03/22 01:43:04;;;;;;;0.60;0.60;;;;;;;4.87;45.69;98167.53;29373;317;63005;-63
2022/03/22 01:43:35;;;;;;;0.60;0.60;;;;;;;4.87;45.87;98162.16;29373;224;63027;-59
2022/03/22 01:44:06;;;;;;;0.60;0.60;;;;;;;4.87;46.00;98164.84;29373;338;63005;-61
2022/03/22 01:44:37;;;;;;;0.60;0.60;;;;;;;4.87;45.85;98162.16;29371;232;64009;-62
2022/03/22 01:45:10;;;;;;;0.60;0.60;;;;;;;4.88;45.70;98161.09;29373;207;63004;-62
2022/03/22 01:45:43;;;;;;;0.60;0.60;;;;;;;4.90;45.50;98164.37;29373;202;63009;-62
2022/03/22 01:46:15;;;;;;;0.60;0.60;;;;;;;4.90;45.42;98164.37;29371;301;64004;-61
2022/03/22 01:46:47;;;;;;;0.50;0.50;;;;;;;4.92;45.62;98162.31;29373;215;63009;-62
2022/03/22 01:47:20;;;;;;;0.60;0.60;;;;;;;4.92;45.65;98162.31;29373;245;63004;-60
2022/03/22 01:47:54;;;;;;;0.60;0.60;;;;;;;4.92;45.73;98167.69;29373;284;63008;-61
2022/03/22 01:48:26;;;;;;;0.60;0.60;;;;;;;4.92;45.94;98156.91;29373;237;63005;-60
2022/03/22 01:48:58;;;;;;;0.60;0.60;;;;;;;4.94;45.75;98165.59;29371;226;64019;-62
2022/03/22 01:49:30;;;;;;;0.95;0.95;;;;;;;4.95;45.75;98159.97;29373;260;63005;-64
2022/03/22 01:50:03;;;;;;;0.70;0.70;;;;;;;4.97;45.90;98167.81;29373;258;63009;-60
2022/03/22 01:50:37;;;;;;;0.52;0.52;;;;;;;4.98;45.43;98162.22;29373;284;63005;-64
2022/03/22 01:51:09;;;;;;;0.60;0.60;;;;;;;4.99;45.69;98163.87;29373;211;63009;-61
2022/03/22 01:51:42;;;;;;;0.60;0.60;;;;;;;5.02;45.53;98159.91;29373;238;63005;-62
2022/03/22 01:52:15;;;;;;;0.60;0.60;;;;;;;5.02;45.55;98157.22;29373;312;63009;-60
2022/03/22 01:52:47;;;;;;;0.60;0.60;;;;;;;5.03;45.43;98165.06;29373;223;63004;-63
2022/03/22 01:53:19;;;;;;;0.60;0.60;;;;;;;5.03;45.29;98158.84;29373;247;63009;-60
2022/03/22 01:53:51;;;;;;;0.60;0.60;;;;;;;5.03;45.36;98158.84;29373;207;63004;-61
2022/03/22 01:54:23;;;;;;;0.60;0.60;;;;;;;5.03;45.22;98164.25;29371;273;64009;-60
2022/03/22 01:54:55;;;;;;;0.60;0.60;;;;;;;5.02;45.64;98162.59;29373;211;63004;-63
2022/03/22 01:55:27;;;;;;;0.60;0.60;;;;;;;5.01;45.40;98156.41;29373;210;63008;-60
2022/03/22 01:56:00;;;;;;;0.60;0.60;;;;;;;5.01;45.41;98160.94;29371;372;64005;-63
2022/03/22 01:56:31;;;;;;;0.60;0.60;;;;;;;5.02;45.51;98157.22;29373;215;63009;-61
2022/03/22 01:57:03;;;;;;;0.82;0.82;;;;;;;5.01;45.51;98160.94;29373;310;63005;-63
2022/03/22 01:57:36;;;;;;;0.60;0.60;;;;;;;5.01;45.45;98150.19;29373;261;63024;-61
2022/03/22 01:58:07;;;;;;;0.60;0.60;;;;;;;5.01;45.83;98150.19;29373;287;63005;-61
2022/03/22 01:58:39;;;;;;;0.52;0.52;;;;;;;5.01;45.84;98158.25;29371;287;64009;-63
2022/03/22 01:59:10;;;;;;;0.60;0.60;;;;;;;5.00;46.19;98153.94;29373;269;63005;-63
2022/03/22 01:59:41;;;;;;;0.60;0.60;;;;;;;4.99;46.42;98160.34;29373;268;63009;-60
2022/03/22 02:00:16;;;;;;;0.60;0.60;;;;;;;4.98;46.41;98161.41;29373;307;63004;-62
2022/03/22 02:00:47;;;;;;;0.60;0.60;;;;;;;4.95;46.60;98162.69;29373;224;63009;-61
2022/03/22 02:05:51;;;;;;;0.60;0.60;;;;;;;4.91;46.78;98160.66;29373;278;63009;-60
2022/03/22 02:06:24;;;;;;;0.60;0.60;;;;;;;4.89;47.04;98154.69;29373;261;63005;-63
2022/03/22 02:06:58;;;;;;;0.60;0.60;;;;;;;4.90;46.81;98164.37;29373;325;63009;-63
2022/03/22 02:07:31;;;;;;;0.60;0.60;;;;;;;4.90;47.02;98159.00;29371;252;64005;-63
2022/03/22 02:08:11;;;;;;;0.60;0.60;;;;;;;4.89;46.58;98154.69;29372;209;63009;-62
2022/03/22 02:08:42;;;;;;;0.50;0.50;;;;;;;4.88;46.80;98153.03;29373;257;63004;-63
2022/03/22 02:09:13;;;;;;;0.65;0.65;;;;;;;4.88;46.68;98161.09;29373;224;63009;-64
2022/03/22 02:09:44;;;;;;;0.60;0.60;;;;;;;4.89;46.54;98157.37;29373;227;63004;-62
2022/03/22 02:10:15;;;;;;;0.60;0.60;;;;;;;4.89;46.73;98157.37;29373;205;63008;-63
2022/03/22 02:10:50;;;;;;;0.50;0.50;;;;;;;4.89;46.51;98152.81;29373;230;63004;-63
2022/03/22 02:11:21;;;;;;;0.60;0.60;;;;;;;4.90;46.57;98159.00;29371;198;64009;-63
2022/03/22 02:11:53;;;;;;;0.60;0.60;;;;;;;4.90;46.47;98153.62;29373;241;63005;-62
2022/03/22 02:12:24;;;;;;;0.60;0.60;;;;;;;4.89;46.16;98157.37;29373;313;63009;-63
2022/03/22 02:12:56;;;;;;;0.60;0.60;;;;;;;4.89;46.41;98160.06;29373;214;63005;-63
2022/03/22 02:13:29;;;;;;;0.60;0.60;;;;;;;4.88;46.39;98153.84;29371;326;64009;-63
2022/03/22 02:14:01;;;;;;;0.60;0.60;;;;;;;4.86;46.45;98147.06;29373;247;63005;-63
2022/03/22 02:14:32;;;;;;;0.60;0.60;;;;;;;4.86;46.35;98152.44;29373;218;63009;-63
2022/03/22 02:15:04;;;;;;;0.60;0.60;;;;;;;4.85;46.08;98154.31;29373;265;63005;-62
2022/03/22 02:15:36;;;;;;;0.60;0.60;;;;;;;4.84;46.13;98149.19;29373;202;63009;-63
2022/03/22 02:16:09;;;;;;;0.60;0.60;;;;;;;4.84;46.16;98154.56;29371;237;64004;-63
2022/03/22 02:16:40;;;;;;;0.60;0.60;;;;;;;4.83;46.15;98150.22;29373;276;63009;-62
2022/03/22 02:17:11;;;;;;;0.50;0.50;;;;;;;4.81;46.68;98149.63;29373;269;63004;-63
2022/03/22 02:17:45;;;;;;;0.50;0.50;;;;;;;4.78;46.86;98150.06;29373;362;63018;-63
2022/03/22 02:18:17;;;;;;;0.50;0.50;;;;;;;4.76;47.75;98157.53;29373;197;63004;-63
2022/03/22 02:18:51;;;;;;;0.60;0.60;;;;;;;4.70;48.05;98160.09;29371;280;64009;-63
2022/03/22 02:19:22;;;;;;;0.60;0.60;;;;;;;4.67;48.32;98149.78;29373;336;63005;-60
2022/03/22 02:19:54;;;;;;;0.60;0.60;;;;;;;4.65;48.60;98151.03;29373;269;63009;-62
2022/03/22 02:20:27;;;;;;;0.60;0.60;;;;;;;4.61;48.42;98150.66;29373;373;63005;-63
2022/03/22 02:21:00;;;;;;;0.50;0.50;;;;;;;4.59;48.37;98150.06;29373;344;63009;-63
2022/03/22 02:21:39;;;;;;;0.60;0.60;;;;;;;4.56;48.54;98158.56;29371;202;64005;-63
2022/03/22 02:22:16;;;;;;;0.60;0.60;;;;;;;4.54;48.26;98151.78;29373;226;63009;-63
2022/03/22 02:22:55;;;;;;;0.60;0.60;;;;;;;4.53;48.35;98159.03;29373;247;63004;-63
2022/03/22 02:24:01;;;;;;;0.60;0.60;;;;;;;4.50;48.38;98156.81;29373;213;63009;-63
2022/03/22 02:24:32;;;;;;;0.60;0.60;;;;;;;4.48;48.69;98160.75;29373;237;63004;-63
2022/03/22 02:25:05;;;;;;;0.57;0.57;;;;;;;4.44;48.94;98160.38;29373;228;63008;-63
2022/03/22 02:25:36;;;;;;;0.65;0.65;;;;;;;4.40;48.60;98159.19;29373;208;63004;-63
2022/03/22 02:26:07;;;;;;;0.60;0.60;;;;;;;4.39;48.81;98157.53;29373;279;63009;-62
2022/03/22 02:26:39;;;;;;;0.95;0.95;;;;;;;4.37;49.00;98165.00;29372;240;63005;-63
2022/03/22 02:27:10;;;;;;;0.50;0.50;;;;;;;4.35;49.09;98159.84;29373;230;63009;-63
2022/03/22 02:27:46;;;;;;;0.60;0.60;;;;;;;4.31;50.11;98165.88;29373;331;63005;-63
2022/03/22 02:28:20;;;;;;;1.95;1.95;;;;;;;4.21;50.99;98162.88;29373;320;63009;-63
2022/03/22 02:28:53;;;;;;;0.60;0.60;;;;;;;4.17;50.41;98167.03;29373;365;63005;-61
2022/03/22 02:29:27;;;;;;;0.50;0.50;;;;;;;4.14;49.88;98164.81;29373;257;63009;-63
2022/03/22 02:29:59;;;;;;;0.60;0.60;;;;;;;4.13;50.36;98165.84;29373;211;63004;-62
2022/03/22 02:30:32;;;;;;;0.50;0.50;;;;;;;4.09;50.20;98161.97;29373;247;63009;-62
2022/03/22 02:31:03;;;;;;;1.42;1.42;;;;;;;4.06;50.84;98165.09;29373;252;63004;-61
2022/03/22 02:31:38;;;;;;;0.85;0.85;;;;;;;4.01;52.04;98171.13;29373;209;63009;-64
2022/03/22 02:32:09;;;;;;;0.60;0.60;;;;;;;3.93;52.10;98169.50;29371;336;64004;-63
2022/03/22 02:32:50;;;;;;;1.40;1.40;;;;;;;3.91;51.08;98166.22;29373;197;63008;-63
2022/03/22 02:33:21;;;;;;;0.60;0.60;;;;;;;3.92;51.08;98162.50;29395;291;63015;-63
2022/03/22 02:33:52;;;;;;;0.60;0.60;;;;;;;3.94;50.81;98163.09;29395;260;63009;-63
2022/03/22 02:34:23;;;;;;;0.50;0.50;;;;;;;3.94;50.94;98165.78;29373;267;63005;-62
2022/03/22 02:34:54;;;;;;;0.60;0.60;;;;;;;3.93;50.51;98158.78;29373;260;63009;-63
2022/03/22 02:35:26;;;;;;;0.50;0.50;;;;;;;3.94;50.71;98163.09;29373;396;63005;-63
2022/03/22 02:35:58;;;;;;;0.60;0.60;;;;;;;3.92;50.67;98154.44;29373;199;63009;-63
2022/03/22 02:36:29;;;;;;;1.33;1.33;;;;;;;3.91;50.62;98160.84;29373;204;63005;-63
2022/03/22 02:37:01;;;;;;;0.55;0.55;;;;;;;3.91;50.43;98158.16;29371;206;64009;-63
2022/03/22 02:37:32;;;;;;;0.60;0.60;;;;;;;3.91;50.55;98160.03;29373;196;63004;-62
2022/03/22 02:38:04;;;;;;;0.50;0.50;;;;;;;3.88;50.15;98155.91;29373;202;63009;-63
2022/03/22 02:38:35;;;;;;;0.60;0.60;;;;;;;3.87;50.29;98162.34;29373;222;63004;-63
2022/03/22 02:39:06;;;;;;;0.60;0.60;;;;;;;3.86;51.12;98158.00;29373;217;63009;-63
2022/03/22 02:39:37;;;;;;;0.60;0.60;;;;;;;3.84;50.53;98159.25;29373;220;63012;-63
2022/03/22 02:40:12;;;;;;;0.60;0.60;;;;;;;3.84;50.83;98164.63;29373;265;63008;-61
2022/03/22 02:40:46;;;;;;;0.60;0.60;;;;;;;3.80;50.96;98156.22;29373;262;63005;-63
2022/03/22 02:41:19;;;;;;;0.60;0.60;;;;;;;3.80;50.77;98156.22;29373;261;63009;-63
2022/03/22 02:41:51;;;;;;;0.62;0.62;;;;;;;3.80;50.72;98152.72;29371;261;64005;-63
2022/03/22 02:42:23;;;;;;;0.60;0.60;;;;;;;3.79;50.73;98159.94;29373;233;63009;-63
2022/03/22 02:42:54;;;;;;;0.62;0.62;;;;;;;3.80;50.54;98153.53;29373;282;63005;-60
2022/03/22 02:43:26;;;;;;;0.60;0.60;;;;;;;3.79;50.62;98154.56;29371;204;64009;-63